Time;durP1;ratioP1;P1;durP2;ratioP2;P2;SDS_P1;SDS_P2;PMS_P1;PMS_P2;Temp;Humidity;BMP_temperature;BMP_pressure;BME280_temperature;BME280_humidity;BME280_pressure;Samples;Min_cycle;Max_cycle;Signal;HPM_P1;HPM_P2
2022/01/24 00:00:17;;;;;;;65.10;39.35;;;;;;;4.53;90.13;103465.97;4965221;28;20053;-61
2022/01/24 00:02:44;;;;;;;69.85;39.53;;;;;;;4.53;90.08;103464.09;4967229;28;20019;-61
2022/01/24 00:05:10;;;;;;;67.07;37.03;;;;;;;4.52;89.96;103462.38;4980985;28;20117;-61
2022/01/24 00:07:36;;;;;;;69.88;38.35;;;;;;;4.52;90.52;103466.94;4964967;28;20558;-61
2022/01/24 00:10:06;;;;;;;66.40;38.67;;;;;;;4.52;91.27;103459.66;4964617;28;20042;-61
2022/01/24 00:12:41;;;;;;;74.15;41.28;;;;;;;4.51;89.33;103460.66;4963850;28;20045;-61
2022/01/24 00:28:10;;;;;;;60.20;36.08;;;;;;;4.48;85.94;103463.63;4968456;28;20105;-61
2022/01/24 00:30:36;;;;;;;58.13;35.70;;;;;;;4.46;85.51;103457.44;4968838;28;20031;-61
2022/01/24 00:33:02;;;;;;;59.17;35.42;;;;;;;4.45;86.45;103450.25;4968495;28;20066;-61
2022/01/24 00:35:27;;;;;;;58.72;35.47;;;;;;;4.44;86.12;103445.81;4972778;28;20046;-61
2022/01/24 00:37:58;;;;;;;60.30;37.40;;;;;;;4.43;84.89;103441.34;4975999;28;20053;-61
2022/01/24 00:40:23;;;;;;;54.67;35.22;;;;;;;4.44;84.06;103443.09;4967237;28;20058;-61
2022/01/24 00:42:57;;;;;;;56.08;36.30;;;;;;;4.45;84.14;103439.38;4967727;28;20054;-61
2022/01/24 00:48:25;;;;;;;56.05;36.08;;;;;;;4.41;84.36;103449.66;4968279;28;20035;-61
2022/01/24 00:53:50;;;;;;;59.05;36.95;;;;;;;4.40;83.69;103442.47;4951375;28;20041;-61
2022/01/24 00:56:16;;;;;;;53.90;34.83;;;;;;;4.41;82.00;103443.34;4967211;28;20038;-61
2022/01/24 00:58:41;;;;;;;56.35;35.63;;;;;;;4.41;81.98;103437.91;4968311;28;20429;-61
2022/01/24 01:01:06;;;;;;;55.63;35.33;;;;;;;4.42;82.05;103442.34;4968420;28;20030;-61
2022/01/24 01:03:32;;;;;;;54.28;35.80;;;;;;;4.41;82.51;103446.06;4968499;28;20050;-61
2022/01/24 01:06:08;;;;;;;55.25;34.83;;;;;;;4.41;82.92;103437.91;4984020;28;20046;-61
2022/01/24 01:19:34;;;;;;;52.65;33.50;;;;;;;4.41;82.07;103429.75;4963982;28;20046;-61
2022/01/24 01:22:00;;;;;;;54.58;35.47;;;;;;;4.42;82.66;103434.19;4967827;28;20031;-61
2022/01/24 01:24:26;;;;;;;52.97;35.17;;;;;;;4.40;83.14;103419.84;4967764;28;20027;-61
2022/01/24 01:27:17;;;;;;;54.70;34.78;;;;;;;4.38;82.83;103432.72;4966300;28;20117;-61
2022/01/24 01:29:51;;;;;;;50.78;33.88;;;;;;;4.38;83.05;103424.53;4973860;28;20034;-61
2022/01/24 01:35:04;;;;;;;48.78;34.13;;;;;;;4.35;82.67;103422.06;4967736;28;20132;-61
2022/01/24 01:37:52;;;;;;;56.13;34.25;;;;;;;4.35;83.28;103422.06;4977269;28;20097;-61
2022/01/24 01:54:04;;;;;;;48.42;31.38;;;;;;;4.32;83.76;103436.81;4956822;28;20054;-61
2022/01/24 01:56:29;;;;;;;51.40;30.73;;;;;;;4.32;83.94;103436.81;4966448;28;20077;-61
2022/01/24 01:58:54;;;;;;;47.88;30.73;;;;;;;4.31;84.31;103437.81;4967579;28;20473;-61
2022/01/24 02:01:20;;;;;;;47.65;30.58;;;;;;;4.33;83.77;103437.66;4966794;28;20022;-61
2022/01/24 02:03:46;;;;;;;47.10;30.33;;;;;;;4.29;83.95;103437.03;4966682;28;20039;-61
2022/01/24 02:06:12;;;;;;;45.97;29.40;;;;;;;4.27;83.82;103435.47;4977986;28;20141;-61
2022/01/24 02:08:38;;;;;;;43.00;28.02;;;;;;;4.25;84.35;103430.13;4986936;28;20133;-61
2022/01/24 02:11:04;;;;;;;44.33;28.70;;;;;;;4.25;83.50;103426.53;4983048;28;20035;-61
2022/01/24 02:13:30;;;;;;;43.13;28.23;;;;;;;4.27;82.05;103419.13;4966865;28;20481;-61
2022/01/24 02:18:44;;;;;;;40.15;26.23;;;;;;;4.28;82.49;103416.28;4966298;28;20042;-61
2022/01/24 02:21:42;;;;;;;39.88;26.23;;;;;;;4.26;82.55;103418.28;4978773;28;20089;-61
2022/01/24 02:24:09;;;;;;;43.22;26.08;;;;;;;4.27;83.44;103414.56;4966888;28;20070;-61
2022/01/24 02:26:34;;;;;;;44.97;27.48;;;;;;;4.27;82.86;103419.13;4965578;28;20085;-61
2022/01/24 02:29:28;;;;;;;39.05;25.63;;;;;;;4.25;82.57;103416.50;4967059;28;20038;-61
2022/01/24 02:31:55;;;;;;;42.13;25.55;;;;;;;4.27;81.25;103413.69;4965739;28;20110;-61
2022/01/24 02:34:34;;;;;;;39.22;25.00;;;;;;;4.29;82.15;103414.41;4965921;28;20037;-61
2022/01/24 02:37:07;;;;;;;37.50;23.85;;;;;;;4.26;81.61;103411.94;4986374;28;20478;-61
2022/01/24 02:39:54;;;;;;;35.17;24.02;;;;;;;4.26;81.99;103406.50;4986001;28;20037;-61
2022/01/24 02:53:10;;;;;;;34.38;23.15;;;;;;;4.25;81.63;103399.34;4985435;28;20070;-61
2022/01/24 02:55:37;;;;;;;33.50;22.23;;;;;;;4.25;81.61;103410.22;4966146;28;20069;-61
2022/01/24 02:58:03;;;;;;;35.30;23.23;;;;;;;4.22;81.90;103399.59;4966360;28;20030;-61
2022/01/24 03:00:28;;;;;;;30.63;21.80;;;;;;;4.21;80.44;103398.75;4966031;28;20545;-61
2022/01/24 03:02:53;;;;;;;34.80;23.08;;;;;;;4.22;80.57;103399.59;4965893;28;20030;-61
2022/01/24 03:05:19;;;;;;;36.47;23.42;;;;;;;4.22;81.21;103394.16;4972807;28;20050;-61
2022/01/24 03:07:44;;;;;;;38.28;23.83;;;;;;;4.23;80.82;103394.03;4985549;28;20456;-61
2022/01/24 03:10:14;;;;;;;34.05;22.80;;;;;;;4.24;80.30;103392.16;4965867;28;20054;-61
2022/01/24 03:15:07;;;;;;;33.28;22.52;;;;;;;4.22;80.89;103384.16;4965901;28;20085;-61
2022/01/24 03:17:32;;;;;;;34.05;22.55;;;;;;;4.21;82.00;103392.41;4965072;28;20394;-61
2022/01/24 03:19:57;;;;;;;34.30;22.95;;;;;;;4.20;82.30;103391.56;4965148;28;20022;-61
2022/01/24 03:22:23;;;;;;;33.85;22.65;;;;;;;4.18;82.12;103393.53;4974080;28;20042;-61
2022/01/24 03:24:49;;;;;;;35.65;23.58;;;;;;;4.16;82.61;103384.66;4965732;28;20026;-61
2022/01/24 03:27:14;;;;;;;33.55;22.58;;;;;;;4.16;82.72;103396.41;4963581;28;20053;-61
2022/01/24 03:29:39;;;;;;;36.63;24.10;;;;;;;4.19;81.39;103388.97;4965353;28;20026;-61
2022/01/24 03:32:05;;;;;;;37.38;24.27;;;;;;;4.15;80.94;103383.75;4963885;28;20035;-61
2022/01/24 03:34:30;;;;;;;33.75;23.45;;;;;;;4.16;81.61;103379.22;4967858;28;20034;-61
2022/01/24 03:36:55;;;;;;;34.35;23.13;;;;;;;4.16;80.43;103379.22;4965462;28;20034;-61
2022/01/24 03:39:21;;;;;;;34.25;23.90;;;;;;;4.16;80.36;103371.91;4965410;28;20050;-61
2022/01/24 03:41:46;;;;;;;33.60;22.67;;;;;;;4.16;80.09;103374.63;4997410;28;20038;-61
2022/01/24 03:44:14;;;;;;;36.85;23.10;;;;;;;4.15;81.28;103385.63;4984476;28;20389;-61
2022/01/24 03:47:02;;;;;;;35.95;23.77;;;;;;;4.16;81.37;103390.09;4984716;28;20022;-61
2022/01/24 03:52:17;;;;;;;38.33;25.20;;;;;;;4.13;84.40;103385.75;4971054;28;20544;-61
2022/01/24 03:54:43;;;;;;;36.13;24.95;;;;;;;4.13;83.11;103379.47;4953400;28;20445;-61
2022/01/24 03:57:10;;;;;;;36.67;24.58;;;;;;;4.12;83.02;103383.19;4963298;28;20114;-61
2022/01/24 03:59:36;;;;;;;35.75;24.55;;;;;;;4.09;83.21;103386.13;4969982;28;20109;-61
2022/01/24 04:02:02;;;;;;;36.60;24.35;;;;;;;4.07;83.35;103383.56;4974778;28;20130;-61
2022/01/24 04:04:27;;;;;;;39.13;24.83;;;;;;;4.05;84.20;103382.78;4965311;28;20050;-61
2022/01/24 04:06:53;;;;;;;34.80;23.13;;;;;;;4.05;84.11;103382.78;4964809;28;20042;-61
2022/01/24 04:09:19;;;;;;;38.13;25.65;;;;;;;4.04;83.70;103370.19;4971264;28;20485;-61
2022/01/24 04:11:45;;;;;;;35.67;24.20;;;;;;;4.06;85.73;103383.69;4965851;28;20086;-61
2022/01/24 04:14:39;;;;;;;38.33;23.98;;;;;;;4.04;84.79;103383.78;4964701;28;20389;-61
2022/01/24 04:22:12;;;;;;;36.90;23.98;;;;;;;4.04;83.07;103363.91;4964832;28;20445;-61
2022/01/24 04:24:39;;;;;;;35.95;24.77;;;;;;;4.03;82.80;103365.75;4971851;28;20026;-61
2022/01/24 04:27:05;;;;;;;35.20;24.65;;;;;;;4.02;82.70;103361.31;4980635;28;20425;-61
2022/01/24 04:29:30;;;;;;;37.10;24.73;;;;;;;4.04;82.41;103370.19;4964898;28;20038;-61
2022/01/24 04:31:56;;;;;;;35.47;23.20;;;;;;;4.05;83.51;103374.63;4964410;28;20534;-61
2022/01/24 04:34:21;;;;;;;40.60;24.60;;;;;;;4.07;82.82;103379.97;4964089;28;20031;-61
2022/01/24 04:36:47;;;;;;;38.97;25.13;;;;;;;4.05;83.71;103371.91;4964905;28;20841;-61
2022/01/24 04:39:15;;;;;;;37.30;25.58;;;;;;;4.05;85.11;103381.94;4971368;28;20432;-61
2022/01/24 04:41:44;;;;;;;37.25;25.63;;;;;;;4.07;84.76;103386.28;4983030;28;20034;-61
2022/01/24 04:44:42;;;;;;;38.38;25.58;;;;;;;4.05;85.02;103384.66;4971959;28;20038;-61
2022/01/24 04:54:54;;;;;;;40.50;25.85;;;;;;;4.03;84.59;103376.63;4966986;28;20093;-61
2022/01/24 04:57:24;;;;;;;38.17;24.90;;;;;;;4.04;83.08;103382.94;4963998;28;20027;-61
2022/01/24 04:59:51;;;;;;;39.00;25.15;;;;;;;4.04;83.15;103381.06;4964393;28;20031;-61
2022/01/24 05:02:19;;;;;;;37.85;25.40;;;;;;;4.04;83.13;103385.66;4963973;28;20069;-61
2022/01/24 05:04:45;;;;;;;35.92;24.63;;;;;;;4.03;83.56;103387.50;4963395;28;20721;-61
2022/01/24 05:07:11;;;;;;;39.65;24.17;;;;;;;4.03;83.13;103384.78;4965110;28;20059;-61
2022/01/24 05:09:42;;;;;;;39.85;24.52;;;;;;;4.01;83.63;103389.50;4979925;28;20121;-61
2022/01/24 05:25:32;;;;;;;36.15;25.60;;;;;;;3.97;84.21;103379.00;4967467;28;20045;-61
2022/01/24 05:27:57;;;;;;;37.17;25.15;;;;;;;3.95;83.75;103380.97;4964366;28;20031;-61
2022/01/24 05:30:22;;;;;;;36.97;24.00;;;;;;;3.93;85.36;103375.66;4965508;28;20042;-61
2022/01/24 05:32:47;;;;;;;37.95;25.25;;;;;;;3.93;85.16;103382.94;4966114;28;20035;-61
2022/01/24 05:35:13;;;;;;;39.05;25.15;;;;;;;3.91;85.11;103377.66;4963472;28;20035;-61
2022/01/24 05:37:39;;;;;;;38.65;24.77;;;;;;;3.89;84.51;103369.59;4966251;28;20027;-61
2022/01/24 05:40:05;;;;;;;37.55;24.45;;;;;;;3.89;84.32;103374.16;4966022;28;20030;-61
2022/01/24 05:42:30;;;;;;;36.45;24.55;;;;;;;3.92;84.51;103375.78;4974206;28;20066;-61
2022/01/24 05:44:58;;;;;;;36.25;23.85;;;;;;;3.94;84.47;103382.81;4985678;28;20553;-61
2022/01/24 05:47:23;;;;;;;38.50;25.35;;;;;;;3.93;85.52;103377.50;4986584;28;20037;-61
2022/01/24 05:49:48;;;;;;;38.15;25.58;;;;;;;3.92;85.28;103381.22;4987118;28;20033;-61
2022/01/24 05:52:13;;;;;;;37.53;24.50;;;;;;;3.91;85.15;103383.09;4968620;28;20077;-61
2022/01/24 05:54:40;;;;;;;36.75;24.83;;;;;;;3.93;85.92;103388.38;4967955;28;20031;-61
2022/01/24 05:57:06;;;;;;;36.70;23.55;;;;;;;3.91;85.63;103380.38;4966643;28;20727;-61
2022/01/24 05:59:32;;;;;;;37.17;24.55;;;;;;;3.89;85.77;103374.16;4965939;28;20125;-61
2022/01/24 06:01:57;;;;;;;40.95;25.67;;;;;;;3.88;86.58;103381.47;4964730;28;20177;-61
2022/01/24 06:04:22;;;;;;;40.58;24.95;;;;;;;3.86;85.88;103379.88;4965225;28;20031;-61
2022/01/24 06:06:48;;;;;;;39.10;24.65;;;;;;;3.85;85.69;103380.84;4966395;28;20133;-61
2022/01/24 06:09:13;;;;;;;38.05;24.35;;;;;;;3.84;84.89;103384.53;4970746;28;20554;-60
2022/01/24 06:11:38;;;;;;;40.00;25.33;;;;;;;3.84;85.61;103385.41;4980455;28;20042;-61
2022/01/24 06:14:04;;;;;;;36.22;24.10;;;;;;;3.82;85.30;103381.97;4984577;28;20481;-61
2022/01/24 06:16:29;;;;;;;37.58;24.85;;;;;;;3.81;85.57;103379.38;4966649;28;20065;-60
2022/01/24 06:18:55;;;;;;;37.40;25.40;;;;;;;3.83;85.28;103385.53;4964107;28;20118;-61
2022/01/24 06:21:20;;;;;;;39.33;24.17;;;;;;;3.85;84.83;103391.72;4964975;28;20026;-61
2022/01/24 06:23:45;;;;;;;40.65;24.45;;;;;;;3.86;84.39;103393.47;4968860;28;20030;-61
2022/01/24 06:26:11;;;;;;;37.95;24.70;;;;;;;3.88;84.03;103391.47;4964418;28;20470;-61
2022/01/24 06:28:37;;;;;;;39.28;25.67;;;;;;;3.88;84.99;103391.47;4965827;28;20023;-61
2022/01/24 06:31:02;;;;;;;37.78;24.67;;;;;;;3.87;85.04;103389.75;4965917;28;20089;-61
2022/01/24 06:33:27;;;;;;;39.72;25.67;;;;;;;3.86;84.36;103383.44;4965841;28;20043;-61
2022/01/24 06:35:53;;;;;;;39.53;24.55;;;;;;;3.85;84.77;103380.84;4965915;28;20031;-61
2022/01/24 06:38:18;;;;;;;36.75;24.92;;;;;;;3.82;84.32;103383.81;4969635;28;20077;-61
2022/01/24 06:40:43;;;;;;;40.30;25.33;;;;;;;3.83;84.68;103380.97;4983764;28;20029;-61
2022/01/24 06:43:08;;;;;;;37.45;24.63;;;;;;;3.85;84.00;103375.41;4985135;28;20026;-61
2022/01/24 06:45:34;;;;;;;40.38;26.17;;;;;;;3.85;83.90;103380.84;4979339;28;20083;-61
2022/01/24 06:47:59;;;;;;;40.05;25.30;;;;;;;3.85;84.85;103384.44;4966592;28;20478;-61
2022/01/24 06:50:24;;;;;;;42.13;25.20;;;;;;;3.85;84.58;103384.44;4964671;28;20042;-61
2022/01/24 06:52:50;;;;;;;40.70;26.13;;;;;;;3.84;83.75;103379.97;4965849;28;20066;-61
2022/01/24 06:55:16;;;;;;;39.97;25.30;;;;;;;3.81;83.00;103377.53;4972413;28;20030;-61
2022/01/24 06:57:41;;;;;;;42.22;26.92;;;;;;;3.81;81.52;103382.97;4965000;28;20081;-61
2022/01/24 07:00:08;;;;;;;41.72;26.42;;;;;;;3.79;82.35;103382.19;4965113;28;20102;-61
2022/01/24 07:02:33;;;;;;;40.90;27.73;;;;;;;3.83;81.53;103380.09;4964937;28;20374;-61
2022/01/24 07:04:58;;;;;;;42.70;26.60;;;;;;;3.83;82.83;103382.81;4963750;28;20034;-61
2022/01/24 07:07:24;;;;;;;40.53;26.88;;;;;;;3.82;82.78;103390.13;4964756;28;20047;-61
2022/01/24 07:09:49;;;;;;;43.78;27.30;;;;;;;3.81;81.97;103387.53;4968048;28;20062;-61
2022/01/24 07:12:14;;;;;;;43.08;27.55;;;;;;;3.82;81.14;103394.69;4966109;28;20363;-61
2022/01/24 07:14:41;;;;;;;41.42;27.50;;;;;;;3.82;80.60;103397.41;4964884;28;20030;-61
2022/01/24 07:19:32;;;;;;;42.35;26.27;;;;;;;3.81;80.36;103398.41;4961042;28;20489;-61
2022/01/24 07:22:00;;;;;;;43.50;28.25;;;;;;;3.82;81.61;103397.41;4964939;28;20031;-61
2022/01/24 07:24:27;;;;;;;39.90;26.08;;;;;;;3.81;81.70;103401.13;4962080;28;20030;-61
2022/01/24 07:26:52;;;;;;;43.05;27.83;;;;;;;3.81;80.99;103403.84;4964584;28;20069;-61
2022/01/24 07:29:18;;;;;;;43.95;27.25;;;;;;;3.82;81.49;103403.72;4964276;28;20113;-61
2022/01/24 07:31:44;;;;;;;41.33;26.92;;;;;;;3.81;81.54;103409.28;4964531;28;20034;-61
2022/01/24 07:34:09;;;;;;;43.47;27.15;;;;;;;3.83;81.41;103404.56;4964009;28;20030;-61
2022/01/24 07:36:35;;;;;;;44.25;27.92;;;;;;;3.82;80.33;103397.41;4964758;28;20445;-61
2022/01/24 07:39:00;;;;;;;40.13;27.00;;;;;;;3.83;81.39;103399.13;4963423;28;20043;-61
2022/01/24 07:41:28;;;;;;;44.83;28.85;;;;;;;3.83;80.61;103399.13;4962683;28;20035;-61
2022/01/24 07:43:55;;;;;;;44.28;28.17;;;;;;;3.84;82.47;103403.56;4964249;28;20030;-61
2022/01/24 07:46:20;;;;;;;43.90;28.02;;;;;;;3.84;81.08;103400.84;4962832;28;20037;-61
2022/01/24 07:48:45;;;;;;;43.38;27.58;;;;;;;3.83;81.41;103404.56;4963891;28;20330;-61
2022/01/24 07:51:11;;;;;;;42.33;28.50;;;;;;;3.84;81.68;103418.03;4961640;28;20023;-61
2022/01/24 07:53:36;;;;;;;42.03;28.05;;;;;;;3.85;80.88;103424.34;4963631;28;20081;-61
2022/01/24 07:56:03;;;;;;;43.53;28.70;;;;;;;3.86;81.42;103426.09;4962578;28;20081;-61
2022/01/24 07:58:29;;;;;;;45.08;28.00;;;;;;;3.84;81.27;103434.34;4965112;28;20386;-61
2022/01/24 08:00:54;;;;;;;43.45;27.73;;;;;;;3.86;82.50;103439.69;4963541;28;20034;-61
2022/01/24 08:03:20;;;;;;;46.05;28.60;;;;;;;3.86;82.86;103434.25;4964051;28;20026;-61
2022/01/24 08:05:45;;;;;;;48.00;28.55;;;;;;;3.87;83.22;103438.69;4963341;28;20034;-61
2022/01/24 08:08:10;;;;;;;44.83;27.85;;;;;;;3.87;83.28;103435.97;4963911;28;20482;-61
2022/01/24 08:10:35;;;;;;;44.42;28.35;;;;;;;3.87;83.58;103433.25;4960738;28;20109;-61
2022/01/24 08:13:02;;;;;;;44.30;28.17;;;;;;;3.89;84.16;103434.84;4962124;28;20027;-61
2022/01/24 08:15:27;;;;;;;46.85;29.77;;;;;;;3.87;82.92;103431.38;4961758;28;20047;-62
2022/01/24 08:17:53;;;;;;;47.17;30.60;;;;;;;3.87;81.99;103431.38;4949230;28;20040;-61
2022/01/24 08:20:19;;;;;;;43.33;28.92;;;;;;;3.88;82.04;103435.84;4951175;28;20390;-61
2022/01/24 08:22:44;;;;;;;48.22;31.02;;;;;;;3.86;81.82;103435.09;4948372;28;20049;-62
2022/01/24 08:25:11;;;;;;;47.90;31.10;;;;;;;3.88;81.46;103440.41;4954285;28;20026;-62
2022/01/24 08:27:37;;;;;;;50.08;31.83;;;;;;;3.88;81.45;103437.69;4948110;28;20031;-62
2022/01/24 08:30:07;;;;;;;51.17;32.30;;;;;;;3.89;80.86;103443.00;4954513;28;20043;-62
2022/01/24 08:32:32;;;;;;;49.53;32.30;;;;;;;3.89;81.35;103436.69;4954511;28;20047;-62
2022/01/24 08:34:58;;;;;;;52.50;33.35;;;;;;;3.87;81.62;103439.53;4951527;28;20030;-62
2022/01/24 08:37:23;;;;;;;51.60;32.65;;;;;;;3.89;82.41;103433.97;4948763;28;20074;-61
2022/01/24 08:39:49;;;;;;;51.80;33.22;;;;;;;3.92;81.47;103441.03;4952785;28;20058;-61
2022/01/24 08:42:19;;;;;;;54.47;33.15;;;;;;;3.93;81.52;103440.91;4950043;28;20030;-62
2022/01/24 08:47:32;;;;;;;53.67;34.47;;;;;;;3.93;80.56;103440.91;4964817;28;20030;-61
2022/01/24 08:49:58;;;;;;;55.55;32.85;;;;;;;3.92;80.23;103441.91;4954120;28;20071;-61
2022/01/24 08:52:25;;;;;;;59.47;34.58;;;;;;;3.92;80.65;103446.47;4953080;28;20058;-61
2022/01/24 08:54:50;;;;;;;57.70;33.80;;;;;;;3.94;80.04;103447.19;4960779;28;20046;-61
2022/01/24 08:57:15;;;;;;;56.38;33.90;;;;;;;3.97;80.62;103446.97;4951931;28;20027;-61
2022/01/24 08:59:42;;;;;;;54.28;33.33;;;;;;;3.99;80.10;103440.41;4956457;28;20038;-61
2022/01/24 09:02:08;;;;;;;56.78;33.78;;;;;;;3.99;80.25;103439.53;4953886;28;20034;-62
2022/01/24 09:04:34;;;;;;;56.08;33.58;;;;;;;3.96;79.12;103446.09;4953769;28;20697;-62
2022/01/24 09:07:04;;;;;;;56.28;35.17;;;;;;;3.96;80.01;103447.97;4956080;28;20043;-61
2022/01/24 09:09:31;;;;;;;59.65;34.17;;;;;;;3.97;80.17;103446.97;4958801;28;20364;-61
2022/01/24 09:11:57;;;;;;;58.73;35.60;;;;;;;3.98;80.02;103444.13;4951771;28;22407;-61
2022/01/24 09:14:23;;;;;;;57.42;35.88;;;;;;;3.95;80.31;103447.06;4951658;28;20294;-62
2022/01/24 09:16:48;;;;;;;58.60;33.60;;;;;;;3.96;79.32;103451.53;4953783;28;20077;-61
2022/01/24 09:19:13;;;;;;;57.05;33.53;;;;;;;3.99;80.59;103454.00;4952726;28;20409;-61
2022/01/24 09:21:39;;;;;;;56.25;34.30;;;;;;;4.02;80.32;103448.31;4951709;28;20050;-62
2022/01/24 09:24:05;;;;;;;55.47;33.88;;;;;;;4.01;79.44;103441.16;4955802;28;20604;-62
2022/01/24 09:26:31;;;;;;;56.60;33.65;;;;;;;3.99;79.35;103443.13;4957360;28;20047;-61
2022/01/24 09:28:56;;;;;;;59.92;36.65;;;;;;;3.95;78.34;103446.22;4951781;28;20026;-61
2022/01/24 09:31:22;;;;;;;56.38;34.90;;;;;;;3.96;78.64;103446.09;4950584;28;20038;-62
2022/01/24 09:33:48;;;;;;;55.40;33.58;;;;;;;4.00;78.96;103452.16;4953839;28;20122;-61
2022/01/24 09:36:14;;;;;;;57.03;35.47;;;;;;;4.01;78.61;103446.59;4958361;28;20206;-61
2022/01/24 09:38:39;;;;;;;58.80;34.17;;;;;;;4.04;79.34;103446.34;4956494;28;20526;-61
2022/01/24 09:41:11;;;;;;;57.55;34.30;;;;;;;4.08;79.24;103453.25;4948921;28;20023;-61
2022/01/24 09:43:36;;;;;;;58.10;33.75;;;;;;;4.06;78.33;103448.94;4954632;28;20079;-61
2022/01/24 09:46:03;;;;;;;58.63;36.08;;;;;;;4.07;79.33;103443.38;4955920;28;20058;-61
2022/01/24 09:48:29;;;;;;;52.90;34.55;;;;;;;4.08;78.85;103442.38;4959642;28;20034;-61
2022/01/24 09:50:54;;;;;;;64.22;36.97;;;;;;;4.10;79.04;103445.81;4952326;28;20059;-61
2022/01/24 09:53:22;;;;;;;57.05;35.70;;;;;;;4.15;79.76;103442.75;4947429;28;20031;-61
2022/01/24 09:55:48;;;;;;;58.72;34.92;;;;;;;4.19;78.41;103444.22;4949885;28;20147;-61
2022/01/24 09:58:13;;;;;;;58.35;34.85;;;;;;;4.21;78.02;103442.25;4947056;28;20039;-61
2022/01/24 10:00:39;;;;;;;60.42;36.38;;;;;;;4.22;78.43;103448.56;4950531;28;20102;-61
2022/01/24 10:03:07;;;;;;;59.72;35.25;;;;;;;4.23;79.14;103450.28;4950366;28;20039;-61
2022/01/24 10:05:37;;;;;;;56.88;35.17;;;;;;;4.20;77.73;103445.94;4947817;28;20046;-61
2022/01/24 10:08:05;;;;;;;57.58;36.45;;;;;;;4.20;78.48;103451.38;4947125;28;20042;-61
2022/01/24 10:10:46;;;;;;;58.05;35.28;;;;;;;4.21;78.20;103444.09;4946132;28;20117;-61
2022/01/24 10:19:11;;;;;;;60.78;36.30;;;;;;;4.16;78.36;103444.50;4950754;28;20082;-61
2022/01/24 10:21:45;;;;;;;57.40;34.47;;;;;;;4.11;77.85;103442.16;4949262;28;20085;-61
2022/01/24 10:24:32;;;;;;;57.70;34.80;;;;;;;4.16;78.37;103444.50;4953788;28;20031;-61
2022/01/24 10:27:13;;;;;;;59.63;35.88;;;;;;;4.20;77.78;103442.38;4931289;28;20039;-61
2022/01/24 10:30:10;;;;;;;58.80;36.25;;;;;;;4.23;78.09;103439.41;4961502;28;20058;-61
2022/01/24 10:32:37;;;;;;;57.38;35.45;;;;;;;4.26;76.83;103444.56;4962174;28;20528;-61
2022/01/24 10:35:21;;;;;;;59.38;33.78;;;;;;;4.34;77.68;103445.69;4949351;28;20023;-61
2022/01/24 10:37:52;;;;;;;53.15;32.95;;;;;;;4.32;77.33;103444.09;4953108;28;20089;-61
2022/01/24 10:40:34;;;;;;;58.45;34.10;;;;;;;4.37;77.19;103441.88;4950363;28;21252;-61
2022/01/24 10:43:17;;;;;;;61.33;36.28;;;;;;;4.42;78.50;103439.63;4949333;28;20026;-61
2022/01/24 10:45:44;;;;;;;62.00;36.15;;;;;;;4.43;76.80;103435.91;4952069;28;20099;-61
2022/01/24 10:48:10;;;;;;;61.72;37.03;;;;;;;4.46;76.51;103438.41;4947884;28;20039;-61
2022/01/24 10:50:35;;;;;;;54.47;34.38;;;;;;;4.50;76.71;103431.69;4948096;28;20082;-61
2022/01/24 10:53:15;;;;;;;56.75;34.83;;;;;;;4.53;76.81;103427.84;4948293;28;20042;-61
2022/01/24 10:55:42;;;;;;;61.13;35.75;;;;;;;4.59;78.27;103427.34;4952184;28;20066;-61
2022/01/24 10:58:09;;;;;;;65.28;39.15;;;;;;;4.64;78.31;103431.41;4947007;28;20061;-61
2022/01/24 11:00:37;;;;;;;63.20;37.45;;;;;;;4.68;77.58;103422.00;4943671;28;20122;-61
2022/01/24 11:03:03;;;;;;;53.92;34.30;;;;;;;4.63;76.66;103421.50;4948257;28;20030;-61
2022/01/24 11:05:35;;;;;;;56.90;34.22;;;;;;;4.62;76.13;103419.78;4950225;28;20061;-61
2022/01/24 11:08:04;;;;;;;55.28;33.45;;;;;;;4.65;75.26;103413.22;4951112;28;20031;-61
2022/01/24 11:10:34;;;;;;;55.67;33.83;;;;;;;4.67;75.73;103413.97;4948449;28;20058;-61
2022/01/24 11:13:04;;;;;;;53.85;34.00;;;;;;;4.73;75.60;103416.16;4953411;28;20030;-61
2022/01/24 11:15:29;;;;;;;56.30;33.83;;;;;;;4.78;76.11;103421.22;4956000;28;20032;-61
2022/01/24 11:17:57;;;;;;;55.78;33.10;;;;;;;4.73;75.02;103418.03;4960292;28;20038;-61
2022/01/24 11:20:29;;;;;;;55.83;34.15;;;;;;;4.72;75.17;103416.31;4964623;28;20046;-61
2022/01/24 11:22:59;;;;;;;53.55;32.97;;;;;;;4.69;75.75;103418.28;4965223;28;20035;-61
2022/01/24 11:25:30;;;;;;;58.13;35.90;;;;;;;4.69;76.40;103411.97;4962173;28;20026;-61
2022/01/24 11:27:56;;;;;;;63.33;36.70;;;;;;;4.73;76.53;103407.13;4962211;28;20117;-61
2022/01/24 11:30:38;;;;;;;61.55;39.30;;;;;;;4.76;76.92;103402.28;4958863;28;20145;-61
2022/01/24 11:33:06;;;;;;;60.67;37.30;;;;;;;4.78;76.54;103400.31;4961685;28;20109;-61
2022/01/24 11:35:38;;;;;;;;;;;;;;;4.92;77.42;103408.16;4961999;28;20046;-61
2022/01/24 11:38:03;;;;;;;56.72;34.80;;;;;;;4.89;76.63;103415.72;4958748;28;20357;-61
2022/01/24 11:40:47;;;;;;;54.13;33.85;;;;;;;4.93;75.76;103411.75;4960434;28;20037;-61
2022/01/24 11:43:27;;;;;;;53.95;33.38;;;;;;;4.95;75.94;103407.88;4961431;28;20030;-61
2022/01/24 11:46:00;;;;;;;57.70;35.30;;;;;;;4.97;75.90;103412.34;4959773;28;20034;-61
2022/01/24 11:48:26;;;;;;;55.83;33.60;;;;;;;5.01;74.79;103411.94;4962986;28;20030;-61
2022/01/24 11:51:00;;;;;;;58.28;33.55;;;;;;;5.07;74.88;103408.72;4963824;28;20516;-61
2022/01/24 11:53:33;;;;;;;55.58;34.45;;;;;;;5.06;75.07;103398.78;4960027;28;20027;-61
2022/01/24 11:56:18;;;;;;;58.70;34.53;;;;;;;5.15;75.52;103388.97;4960264;28;20042;-62
2022/01/24 11:58:43;;;;;;;55.88;33.40;;;;;;;5.17;75.09;103387.88;4961214;28;20035;-61
2022/01/24 12:01:13;;;;;;;56.08;33.60;;;;;;;5.14;72.84;103385.38;4963531;28;20053;-61
2022/01/24 12:03:49;;;;;;;53.08;32.63;;;;;;;5.05;73.57;103388.91;4961752;28;20057;-61
2022/01/24 12:06:19;;;;;;;49.70;30.42;;;;;;;4.98;72.57;103379.53;4957304;28;20126;-61
2022/01/24 12:08:46;;;;;;;50.40;29.77;;;;;;;4.97;74.06;103387.81;4960437;28;20505;-61
2022/01/24 12:11:15;;;;;;;55.03;32.63;;;;;;;4.94;74.44;103380.78;4951440;28;20045;-61
2022/01/24 12:13:44;;;;;;;53.33;31.70;;;;;;;4.95;72.95;103377.94;4966232;28;20030;-61
2022/01/24 12:16:11;;;;;;;51.58;32.25;;;;;;;4.95;73.70;103383.38;4957748;28;20061;-61
2022/01/24 12:18:36;;;;;;;52.22;31.67;;;;;;;4.95;73.58;103380.66;4959765;28;20027;-61
2022/01/24 12:21:03;;;;;;;55.83;32.90;;;;;;;5.01;74.58;103376.53;4960531;28;20545;-61
2022/01/24 12:23:31;;;;;;;52.78;31.48;;;;;;;5.00;73.42;103379.41;4946046;28;20490;-61
2022/01/24 12:26:06;;;;;;;49.20;29.50;;;;;;;5.17;73.18;103379.69;4950303;28;20676;-61
2022/01/24 12:28:46;;;;;;;52.85;31.40;;;;;;;4.96;74.33;103378.78;4945933;28;20100;-61
2022/01/24 12:31:20;;;;;;;58.00;33.63;;;;;;;4.99;74.47;103377.69;4947272;28;20034;-61
2022/01/24 12:33:54;;;;;;;51.58;31.65;;;;;;;5.01;73.64;103375.69;4951066;28;20058;-61
2022/01/24 12:36:50;;;;;;;51.10;31.77;;;;;;;4.98;72.95;103370.50;4948610;28;20030;-61
2022/01/24 12:39:43;;;;;;;51.42;30.67;;;;;;;4.69;72.16;103362.97;4944727;28;20054;-61
2022/01/24 12:42:15;;;;;;;54.63;31.65;;;;;;;4.63;72.97;103363.50;4953168;28;20057;-61
2022/01/24 12:47:27;;;;;;;54.42;32.05;;;;;;;4.97;73.84;103357.88;4948342;28;20046;-61
2022/01/24 12:49:54;;;;;;;52.95;31.83;;;;;;;4.98;72.85;103355.03;4948925;28;20065;-61
2022/01/24 12:52:29;;;;;;;54.53;31.83;;;;;;;5.04;72.43;103353.63;4949079;28;20043;-61
2022/01/24 12:54:59;;;;;;;49.83;32.03;;;;;;;5.07;73.61;103353.34;4947295;28;20054;-61
2022/01/24 12:57:30;;;;;;;50.90;31.75;;;;;;;5.15;73.89;103348.97;4947191;28;20031;-61
2022/01/24 13:00:01;;;;;;;53.03;31.92;;;;;;;5.21;72.79;103350.28;4948606;28;20042;-61
2022/01/24 13:02:34;;;;;;;53.47;31.65;;;;;;;5.27;73.89;103338.88;4948722;28;20445;-61
2022/01/24 13:05:04;;;;;;;56.35;32.00;;;;;;;5.28;73.68;103335.16;4950580;28;20405;-61
2022/01/24 13:07:31;;;;;;;52.55;32.35;;;;;;;5.30;72.56;103337.72;4944836;28;20038;-61